NK82 weather

Engineers Airport
Constantia, New York, United States

Public forecast

Using degrees Fahrenheit for public forecast. Weather courtesy of forecast.io.

Closest aviation weather report (METAR) to Engineers Airport

Closest report is Syracuse Hancock International Airport, 12.9 nm (23.9 km) SSW. Retrieved 2019/10/23 13:54 UTC (10 minutes ago):

KSYR 231354Z 25012KT 10SM FEW050 SCT080 13/06 A2991 RMK AO2 SLP126 T01280061

Closest aviation forecast (TAF) to Engineers Airport

Closest forecast is Syracuse Hancock International Airport, 12.9 nm (23.9 km) SSW. Retrieved 2019/10/23 12:42 UTC (1 hour ago):

TAF KSYR 231139Z 2312/2412 23007KT P6SM SCT080 FM231600 25011G18KT P6SM BKN060 FM232200 24008KT P6SM SCT070 FM240200 21006KT P6SM SKC FM241000 18006KT P6SM SCT150 WS020/24040KT